Time;durP1;ratioP1;P1;durP2;ratioP2;P2;SDS_P1;SDS_P2;PMS_P1;PMS_P2;Temp;Humidity;BMP_temperature;BMP_pressure;BME280_temperature;BME280_humidity;BME280_pressure;Samples;Min_cycle;Max_cycle;Signal;HPM_P1;HPM_P2
2022/07/30 00:00:49;;;;;;;2.95;2.72;;;;;;;18.77;82.02;98089.94;5021136;28;20046;-81
2022/07/30 00:03:16;;;;;;;2.75;2.55;;;;;;;18.76;82.11;98096.31;5022556;28;20046;-81
2022/07/30 00:05:42;;;;;;;2.90;2.70;;;;;;;18.70;82.32;98078.72;5017029;28;20045;-81
2022/07/30 00:08:09;;;;;;;2.55;2.35;;;;;;;18.68;82.33;98071.03;5018123;28;20111;-81
2022/07/30 00:10:36;;;;;;;3.00;2.70;;;;;;;18.74;82.20;98077.19;5027085;28;20096;-80
2022/07/30 00:13:04;;;;;;;3.13;2.63;;;;;;;18.67;82.40;98088.03;5020916;28;20046;-81
2022/07/30 00:15:32;;;;;;;2.80;2.60;;;;;;;18.64;82.88;98091.13;5021664;28;20038;-79
2022/07/30 00:17:59;;;;;;;3.97;2.53;;;;;;;18.66;83.58;98088.25;5021591;28;20048;-80
2022/07/30 00:20:26;;;;;;;2.58;2.38;;;;;;;18.64;82.98;98093.00;5023520;28;20046;-81
2022/07/30 00:22:54;;;;;;;2.92;2.65;;;;;;;18.67;82.99;98097.84;5017161;28;20530;-80
2022/07/30 00:25:20;;;;;;;3.05;2.85;;;;;;;18.73;83.28;98093.38;5011310;28;20488;-86
2022/07/30 00:27:47;;;;;;;2.70;2.50;;;;;;;18.73;83.27;98096.84;5012664;28;20049;-86
2022/07/30 00:30:14;;;;;;;3.00;2.70;;;;;;;18.81;83.50;98096.38;5013925;28;20069;-80
2022/07/30 00:32:42;;;;;;;3.13;2.83;;;;;;;18.87;83.57;98094.56;5021231;28;20049;-81
2022/07/30 00:35:09;;;;;;;2.63;2.42;;;;;;;18.92;82.93;98092.75;5020393;28;20095;-82
2022/07/30 00:37:38;;;;;;;2.63;2.42;;;;;;;18.85;83.04;98089.50;5018479;28;20053;-82
2022/07/30 00:40:08;;;;;;;2.65;2.45;;;;;;;18.94;83.15;98097.81;5023413;28;20723;-81
2022/07/30 00:42:45;;;;;;;2.85;2.65;;;;;;;18.99;83.05;98100.50;5024997;28;20045;-82
2022/07/30 00:45:14;;;;;;;3.22;3.00;;;;;;;19.03;82.84;98103.47;5020253;28;20037;-82
2022/07/30 00:47:42;;;;;;;3.10;2.90;;;;;;;19.02;83.21;98102.69;5022974;28;20567;-82
2022/07/30 00:50:11;;;;;;;3.40;3.10;;;;;;;18.67;83.73;98116.44;5020827;28;20026;-82
2022/07/30 00:52:39;;;;;;;3.17;2.88;;;;;;;18.44;85.05;98104.22;5023040;28;20100;-82
2022/07/30 00:55:12;;;;;;;3.50;3.20;;;;;;;18.40;85.40;98116.38;5006533;28;21094;-81
2022/07/30 00:57:40;;;;;;;4.18;3.78;;;;;;;18.23;86.42;98119.13;5018177;28;20101;-81
2022/07/30 01:00:13;;;;;;;4.18;3.83;;;;;;;18.02;87.30;98123.41;5020592;28;20053;-81
2022/07/30 01:02:41;;;;;;;3.40;3.10;;;;;;;17.98;87.25;98121.47;5018252;28;20042;-81
2022/07/30 01:05:10;;;;;;;2.78;2.58;;;;;;;17.99;87.71;98131.03;5022017;28;20034;-81
2022/07/30 01:07:37;;;;;;;2.67;2.47;;;;;;;18.18;86.96;98121.75;5020375;28;20045;-82
2022/07/30 01:10:06;;;;;;;3.38;3.08;;;;;;;18.19;86.12;98124.13;5026053;28;20064;-82
2022/07/30 01:12:38;;;;;;;3.03;2.83;;;;;;;18.04;87.42;98120.50;5028404;28;20033;-82
2022/07/30 01:15:09;;;;;;;3.00;2.65;;;;;;;18.08;87.14;98126.91;5022144;28;20042;-82
2022/07/30 01:17:38;;;;;;;4.30;3.90;;;;;;;18.24;86.93;98120.75;5026712;28;20103;-82
2022/07/30 01:20:12;;;;;;;5.45;4.93;;;;;;;18.25;86.91;98125.00;5022886;28;20050;-82
2022/07/30 01:23:01;;;;;;;4.15;3.75;;;;;;;18.28;87.56;98116.53;5020019;28;20084;-82
2022/07/30 01:25:31;;;;;;;4.97;4.47;;;;;;;18.48;86.60;98117.81;5021420;28;20048;-82
2022/07/30 01:28:05;;;;;;;4.47;3.80;;;;;;;18.60;85.82;98116.63;5020361;28;20096;-82
2022/07/30 01:30:39;;;;;;;4.57;4.07;;;;;;;18.45;86.12;98122.56;5024171;28;20508;-82
2022/07/30 01:33:14;;;;;;;4.93;4.50;;;;;;;18.35;86.59;98122.47;5018048;28;20046;-81
2022/07/30 01:35:45;;;;;;;3.97;3.28;;;;;;;18.37;86.56;98120.34;5018663;28;20061;-81
2022/07/30 01:38:15;;;;;;;4.60;4.20;;;;;;;18.23;86.79;98119.13;5024247;28;20041;-82
2022/07/30 01:40:44;;;;;;;5.75;5.22;;;;;;;18.06;87.11;98113.91;5029444;28;20044;-82
2022/07/30 01:43:13;;;;;;;4.05;3.70;;;;;;;18.05;87.34;98109.66;5017207;28;20041;-83
2022/07/30 01:45:42;;;;;;;3.80;3.50;;;;;;;18.12;87.16;98115.56;5022060;28;20072;-82
2022/07/30 01:48:13;;;;;;;3.60;3.30;;;;;;;18.33;86.60;98107.81;5025419;28;20054;-81
2022/07/30 01:50:49;;;;;;;3.85;3.55;;;;;;;18.50;86.13;98118.38;5022347;28;20056;-82
2022/07/30 01:53:22;;;;;;;4.15;3.67;;;;;;;18.53;85.60;98117.84;5023065;28;20046;-82
2022/07/30 01:55:53;;;;;;;4.65;3.67;;;;;;;18.58;85.54;98110.72;5020802;28;20095;-82
2022/07/30 01:58:25;;;;;;;3.80;3.40;;;;;;;18.63;84.82;98124.06;5023695;28;20080;-82
2022/07/30 02:00:56;;;;;;;5.38;4.28;;;;;;;18.31;85.53;98118.69;5024208;28;20045;-82
2022/07/30 02:03:28;;;;;;;7.07;6.15;;;;;;;18.08;86.63;98121.59;5019329;28;20405;-82
2022/07/30 02:06:01;;;;;;;5.13;4.55;;;;;;;17.95;87.27;98122.78;5021974;28;20279;-82
2022/07/30 02:08:43;;;;;;;4.78;4.13;;;;;;;18.04;88.10;98128.44;5021811;28;20069;-82
2022/07/30 02:11:14;;;;;;;6.32;5.22;;;;;;;18.05;87.49;98120.25;5029039;28;20050;-82
2022/07/30 02:13:53;;;;;;;6.53;5.40;;;;;;;17.98;87.20;98110.84;5025216;28;20046;-82
2022/07/30 02:16:35;;;;;;;4.60;3.58;;;;;;;18.12;87.50;98122.72;5016822;28;20100;-82
2022/07/30 02:19:13;;;;;;;4.35;3.95;;;;;;;18.31;86.96;98110.72;5021544;28;20189;-82
2022/07/30 02:21:47;;;;;;;4.20;3.78;;;;;;;18.43;87.17;98118.56;5025733;28;20050;-82
2022/07/30 02:24:24;;;;;;;4.90;4.40;;;;;;;18.48;86.79;98115.16;5018662;28;20144;-82
2022/07/30 02:27:01;;;;;;;5.55;4.28;;;;;;;18.51;86.56;98122.63;5020972;28;20042;-83
2022/07/30 02:29:34;;;;;;;7.45;5.30;;;;;;;18.47;85.81;98114.34;5016710;28;20113;-82
2022/07/30 02:32:07;;;;;;;4.50;3.80;;;;;;;18.51;86.22;98109.34;5023380;28;20107;-86
2022/07/30 02:34:40;;;;;;;5.97;5.22;;;;;;;18.45;86.41;98111.13;5017833;28;20041;-82
2022/07/30 02:37:13;;;;;;;5.63;4.72;;;;;;;18.49;85.87;98108.78;5025414;28;20109;-82
2022/07/30 02:39:42;;;;;;;5.72;4.60;;;;;;;18.43;86.65;98113.25;5021561;28;20045;-82
2022/07/30 02:42:13;;;;;;;5.78;4.82;;;;;;;18.46;86.33;98097.59;5022881;28;20933;-81
2022/07/30 02:44:44;;;;;;;6.75;4.97;;;;;;;18.56;86.07;98106.75;5025100;28;20069;-87
2022/07/30 02:47:16;;;;;;;8.00;5.55;;;;;;;18.62;85.68;98117.16;5023757;28;20041;-86
2022/07/30 02:49:46;;;;;;;5.75;5.15;;;;;;;18.64;85.34;98103.63;5020814;28;20076;-87
2022/07/30 02:52:16;;;;;;;6.50;5.70;;;;;;;18.66;85.37;98112.97;5021099;28;20092;-86
2022/07/30 02:54:46;;;;;;;6.88;6.05;;;;;;;18.67;85.27;98111.94;5022813;28;20068;-86
2022/07/30 02:57:18;;;;;;;6.77;5.50;;;;;;;18.70;85.31;98113.28;5024064;28;20671;-87
2022/07/30 02:59:48;;;;;;;6.18;5.50;;;;;;;18.76;85.26;98114.91;5024404;28;20285;-86
2022/07/30 03:02:17;;;;;;;5.88;5.28;;;;;;;18.80;84.97;98102.75;5020326;28;20041;-86
2022/07/30 03:04:58;;;;;;;7.07;5.78;;;;;;;18.73;84.93;98110.13;5022112;28;20373;-82
2022/07/30 03:07:28;;;;;;;7.60;6.60;;;;;;;18.54;85.35;98092.91;5019813;28;20046;-82
2022/07/30 03:09:57;;;;;;;6.13;5.18;;;;;;;18.48;86.07;98094.72;5020930;28;20052;-82
2022/07/30 03:12:30;;;;;;;5.65;5.05;;;;;;;18.58;86.10;98094.78;5025718;28;20400;-81
2022/07/30 03:14:57;;;;;;;6.78;5.70;;;;;;;18.67;85.89;98087.22;5021237;28;20072;-82
2022/07/30 03:17:30;;;;;;;7.53;5.95;;;;;;;18.65;85.46;98097.25;5024554;28;20029;-82
2022/07/30 03:20:00;;;;;;;14.55;6.03;;;;;;;18.52;84.97;98101.13;5023153;28;20462;-82
2022/07/30 03:22:30;;;;;;;16.90;7.00;;;;;;;18.36;85.18;98108.13;5022112;28;20415;-81
2022/07/30 03:25:01;;;;;;;5.82;5.03;;;;;;;18.24;86.40;98106.69;5021738;28;20085;-81
2022/07/30 03:27:29;;;;;;;5.60;5.00;;;;;;;18.32;86.33;98099.06;4998902;28;20137;-82
2022/07/30 03:30:01;;;;;;;4.85;4.35;;;;;;;18.39;86.49;98102.31;5019002;28;20414;-82
2022/07/30 03:32:30;;;;;;;5.88;5.10;;;;;;;18.44;86.18;98110.34;5019051;28;20076;-81
2022/07/30 03:34:59;;;;;;;6.78;5.43;;;;;;;18.48;86.17;98107.19;5023683;28;20041;-82
2022/07/30 03:37:36;;;;;;;6.28;5.00;;;;;;;18.54;85.79;98114.16;5019130;28;20045;-82
2022/07/30 03:40:05;;;;;;;5.65;5.05;;;;;;;18.51;85.70;98126.06;5022740;28;20091;-82
2022/07/30 03:42:34;;;;;;;5.13;4.47;;;;;;;18.54;86.16;98120.28;5016242;28;20119;-82
2022/07/30 03:45:05;;;;;;;5.15;4.45;;;;;;;18.58;85.84;98112.59;5019038;28;20525;-81
2022/07/30 03:47:37;;;;;;;6.25;5.40;;;;;;;18.53;85.87;98112.53;5017058;28;20054;-82
2022/07/30 03:50:05;;;;;;;6.40;5.35;;;;;;;18.63;86.01;98110.78;5017216;28;20403;-82
2022/07/30 03:52:36;;;;;;;6.15;5.32;;;;;;;18.70;85.83;98115.94;5010355;28;20456;-82
2022/07/30 03:55:11;;;;;;;5.55;4.90;;;;;;;18.67;84.91;98119.09;5012234;28;20132;-82
2022/07/30 03:57:38;;;;;;;6.72;5.70;;;;;;;18.68;85.36;98112.72;5022524;28;20068;-82
2022/07/30 04:00:13;;;;;;;6.72;5.95;;;;;;;18.68;85.06;98124.16;5023421;28;20042;-82
2022/07/30 04:02:44;;;;;;;10.38;8.80;;;;;;;18.54;85.12;98130.09;5019351;28;20041;-82
2022/07/30 04:05:13;;;;;;;7.03;6.20;;;;;;;18.51;86.55;98136.69;5024646;28;20065;-82
2022/07/30 04:07:40;;;;;;;8.98;7.15;;;;;;;18.45;86.13;98125.22;5021754;28;20045;-82
2022/07/30 04:10:13;;;;;;;7.05;6.10;;;;;;;18.45;86.46;98132.38;5019398;28;20046;-83
2022/07/30 04:12:40;;;;;;;7.15;6.45;;;;;;;18.41;86.09;98134.75;5024020;28;20076;-81
2022/07/30 04:15:08;;;;;;;12.48;11.13;;;;;;;18.23;85.99;98137.69;5023224;28;20401;-81
2022/07/30 04:18:02;;;;;;;12.38;10.90;;;;;;;18.02;87.05;98133.22;5022024;28;20083;-83
2022/07/30 04:20:39;;;;;;;11.90;10.65;;;;;;;17.92;87.36;98139.97;5017918;28;20049;-83
2022/07/30 04:23:09;;;;;;;11.05;9.93;;;;;;;17.83;87.37;98141.47;5022163;28;20100;-81
2022/07/30 04:25:37;;;;;;;14.07;12.63;;;;;;;17.77;87.32;98149.59;5022344;28;20457;-81
2022/07/30 04:28:05;;;;;;;13.02;10.23;;;;;;;17.69;88.09;98150.78;5034798;28;20042;-82
2022/07/30 04:30:35;;;;;;;14.77;13.25;;;;;;;17.54;87.89;98155.88;5015214;28;20442;-82
2022/07/30 04:33:04;;;;;;;8.93;8.03;;;;;;;17.54;88.39;98159.31;5020791;28;20053;-83
2022/07/30 04:35:33;;;;;;;9.18;7.88;;;;;;;17.56;88.56;98156.41;5024189;28;20751;-84
2022/07/30 04:38:18;;;;;;;11.88;10.60;;;;;;;17.55;88.22;98154.81;5017262;28;20100;-82
2022/07/30 04:40:46;;;;;;;7.88;7.07;;;;;;;17.61;88.63;98165.25;5020229;28;20069;-82
2022/07/30 04:43:15;;;;;;;11.88;9.23;;;;;;;17.61;88.46;98167.91;5020217;28;20433;-82
2022/07/30 04:45:42;;;;;;;7.78;6.55;;;;;;;17.66;88.78;98162.69;5021403;28;20491;-83
2022/07/30 04:48:10;;;;;;;7.82;6.97;;;;;;;17.66;88.75;98167.97;5001586;28;20545;-83
2022/07/30 04:50:42;;;;;;;8.32;7.05;;;;;;;17.79;88.54;98161.56;5018475;28;20417;-83
2022/07/30 04:53:10;;;;;;;11.43;10.07;;;;;;;17.76;88.19;98170.03;5019152;28;20508;-84
2022/07/30 04:55:44;;;;;;;9.23;6.72;;;;;;;17.83;87.98;98180.47;5018468;28;20076;-82
2022/07/30 04:58:15;;;;;;;5.80;5.20;;;;;;;17.89;88.39;98172.31;5011502;28;20485;-82
2022/07/30 05:00:43;;;;;;;9.88;8.82;;;;;;;17.84;87.61;98185.50;5011217;28;20050;-82
2022/07/30 05:03:13;;;;;;;6.65;5.03;;;;;;;18.01;88.11;98190.78;5016148;28;20048;-83
2022/07/30 05:05:41;;;;;;;8.57;7.75;;;;;;;17.96;87.27;98181.97;5016477;28;20041;-83
2022/07/30 05:08:11;;;;;;;6.75;5.63;;;;;;;17.96;87.84;98184.59;5017424;28;20577;-83
2022/07/30 05:10:37;;;;;;;7.70;6.90;;;;;;;17.99;87.85;98190.22;5013028;28;20065;-82
2022/07/30 05:13:11;;;;;;;8.80;7.30;;;;;;;18.11;87.45;98195.41;5018761;28;20494;-83
2022/07/30 05:15:39;;;;;;;10.13;7.63;;;;;;;18.10;87.10;98188.50;5020863;28;20507;-83
2022/07/30 05:18:07;;;;;;;8.70;7.43;;;;;;;18.00;87.16;98199.00;5021588;28;20497;-83
2022/07/30 05:20:34;;;;;;;10.20;7.53;;;;;;;17.99;87.47;98200.03;5025981;28;20046;-82
2022/07/30 05:23:01;;;;;;;7.78;6.53;;;;;;;18.06;87.56;98203.34;5021463;28;20053;-82
2022/07/30 05:25:28;;;;;;;6.22;5.30;;;;;;;18.14;87.83;98194.94;5019445;28;20045;-82
2022/07/30 05:27:56;;;;;;;7.05;6.18;;;;;;;18.22;86.63;98194.50;5026862;28;20041;-83
2022/07/30 05:30:24;;;;;;;8.50;6.97;;;;;;;18.29;87.05;98191.66;5020014;28;20098;-81
2022/07/30 05:32:53;;;;;;;8.88;7.65;;;;;;;18.33;86.92;98201.53;5026947;28;20045;-82
2022/07/30 05:35:22;;;;;;;9.35;8.07;;;;;;;18.37;86.35;98196.56;5020315;28;20056;-83
2022/07/30 05:37:49;;;;;;;11.52;9.32;;;;;;;18.25;85.90;98201.19;5027515;28;20096;-83
2022/07/30 05:40:16;;;;;;;8.52;7.65;;;;;;;18.32;87.03;98197.28;5026238;28;20037;-82
2022/07/30 05:42:42;;;;;;;8.80;7.80;;;;;;;18.40;86.66;98199.50;5023465;28;20041;-83
2022/07/30 05:45:10;;;;;;;9.13;8.15;;;;;;;18.33;86.31;98203.41;5025698;28;20072;-82
2022/07/30 05:47:36;;;;;;;10.43;8.77;;;;;;;18.40;86.19;98204.00;5024932;28;20046;-82
2022/07/30 05:50:04;;;;;;;10.30;8.27;;;;;;;18.38;85.68;98206.94;5022808;28;20037;-83
2022/07/30 05:52:32;;;;;;;10.55;9.20;;;;;;;18.37;85.64;98207.19;5023072;28;20543;-83
2022/07/30 05:55:00;;;;;;;10.93;9.27;;;;;;;18.31;85.51;98206.31;5023081;28;20058;-81
2022/07/30 05:57:26;;;;;;;12.00;10.27;;;;;;;18.38;86.03;98209.59;5021930;28;20440;-82
2022/07/30 05:59:53;;;;;;;11.70;10.48;;;;;;;18.30;84.86;98207.38;5018844;28;20543;-82
2022/07/30 06:02:20;;;;;;;10.23;8.75;;;;;;;18.27;85.64;98210.50;5024420;28;20092;-81
2022/07/30 06:04:50;;;;;;;9.45;8.45;;;;;;;18.23;85.66;98217.34;5022471;28;20037;-82
2022/07/30 06:07:17;;;;;;;8.68;7.40;;;;;;;18.25;85.85;98217.91;5029131;28;20041;-82
2022/07/30 06:09:44;;;;;;;9.35;7.93;;;;;;;18.38;85.47;98214.88;5026040;28;20474;-81
2022/07/30 06:12:11;;;;;;;9.57;8.55;;;;;;;18.42;84.80;98221.31;5023662;28;20092;-81
2022/07/30 06:14:38;;;;;;;9.02;8.13;;;;;;;18.52;84.97;98217.97;5016776;28;20088;-80
2022/07/30 06:17:05;;;;;;;10.38;8.82;;;;;;;18.51;85.03;98212.91;5018288;28;20045;-81
2022/07/30 06:19:33;;;;;;;8.60;7.70;;;;;;;18.44;84.41;98208.59;5020956;28;20048;-82
2022/07/30 06:22:00;;;;;;;7.22;6.53;;;;;;;18.59;85.50;98215.94;5018433;28;20045;-81
2022/07/30 06:24:34;;;;;;;9.30;7.35;;;;;;;18.62;85.23;98210.13;5025136;28;20050;-82
2022/07/30 06:27:01;;;;;;;8.98;7.93;;;;;;;18.66;84.38;98213.09;5024612;28;20049;-80
2022/07/30 06:29:29;;;;;;;7.65;6.85;;;;;;;18.65;83.90;98211.47;5015108;28;20182;-80
2022/07/30 06:31:55;;;;;;;7.88;7.10;;;;;;;18.62;83.85;98212.78;5024393;28;20311;-81
2022/07/30 06:34:22;;;;;;;8.18;7.38;;;;;;;18.51;83.97;98211.06;5028016;28;20176;-80
2022/07/30 06:36:49;;;;;;;8.77;7.90;;;;;;;18.34;83.79;98205.81;5019210;28;20045;-81
2022/07/30 06:39:16;;;;;;;6.78;6.10;;;;;;;18.29;85.42;98208.41;5019539;28;20104;-81
2022/07/30 06:42:03;;;;;;;5.47;4.93;;;;;;;18.31;85.21;98210.81;5017952;28;20482;-82
2022/07/30 06:44:30;;;;;;;4.43;4.03;;;;;;;18.56;84.99;98215.63;5015167;28;20050;-81
2022/07/30 06:46:57;;;;;;;4.35;3.83;;;;;;;18.92;82.63;98207.03;5019620;28;20030;-82
2022/07/30 06:49:32;;;;;;;4.05;3.65;;;;;;;19.21;83.09;98215.56;5018533;28;20084;-82
2022/07/30 06:51:59;;;;;;;3.80;3.50;;;;;;;19.27;80.70;98208.41;5023843;28;20038;-83
2022/07/30 06:54:26;;;;;;;3.00;2.80;;;;;;;19.56;80.45;98206.28;5019670;28;20068;-83
2022/07/30 06:56:53;;;;;;;3.60;3.30;;;;;;;19.65;79.52;98203.94;5011459;28;20246;-81
2022/07/30 06:59:20;;;;;;;3.95;3.00;;;;;;;19.64;79.38;98202.34;5011785;28;20410;-82
2022/07/30 07:01:46;;;;;;;3.00;2.70;;;;;;;19.80;77.97;98217.38;5012112;28;20386;-81
2022/07/30 07:04:13;;;;;;;2.55;2.35;;;;;;;20.10;79.11;98215.97;5012115;28;20038;-81
2022/07/30 07:06:40;;;;;;;2.80;2.60;;;;;;;20.28;77.03;98212.84;5012168;28;20449;-82
2022/07/30 07:09:07;;;;;;;3.15;2.95;;;;;;;20.30;75.63;98210.72;5019793;28;20505;-81
2022/07/30 07:11:34;;;;;;;2.95;2.75;;;;;;;20.41;74.32;98209.72;5022833;28;20041;-80
2022/07/30 07:14:00;;;;;;;2.90;2.70;;;;;;;20.60;75.22;98220.72;5023771;28;20091;-80
2022/07/30 07:16:30;;;;;;;2.30;2.17;;;;;;;20.48;76.11;98212.97;5018305;28;20042;-80
2022/07/30 07:18:57;;;;;;;2.67;2.38;;;;;;;20.38;75.77;98220.88;5020575;28;20392;-81
2022/07/30 07:21:24;;;;;;;2.75;2.55;;;;;;;20.45;76.41;98224.16;5023343;28;20132;-80
2022/07/30 07:23:51;;;;;;;2.78;2.58;;;;;;;20.47;76.11;98223.88;5022386;28;20398;-85
2022/07/30 07:26:18;;;;;;;2.60;2.40;;;;;;;20.64;75.84;98226.34;5013909;28;20095;-81
2022/07/30 07:28:44;;;;;;;2.13;2.03;;;;;;;20.81;77.95;98221.59;5018560;28;20068;-81
2022/07/30 07:31:11;;;;;;;3.00;2.80;;;;;;;20.66;73.65;98222.34;5020325;28;20046;-82
2022/07/30 07:33:59;;;;;;;2.78;2.58;;;;;;;20.39;75.44;98227.81;5022925;28;20572;-81
2022/07/30 07:36:25;;;;;;;3.72;3.42;;;;;;;20.32;75.83;98224.56;5019542;28;20077;-80
2022/07/30 07:38:52;;;;;;;4.45;4.05;;;;;;;20.18;73.70;98234.09;5026044;28;20447;-80
2022/07/30 07:41:19;;;;;;;3.95;3.33;;;;;;;20.16;71.88;98241.56;5020418;28;20046;-81
2022/07/30 07:43:45;;;;;;;4.20;3.90;;;;;;;20.00;72.88;98249.44;5021842;28;20045;-81
2022/07/30 07:46:15;;;;;;;4.25;3.85;;;;;;;19.95;74.25;98241.41;5017802;28;20042;-80
2022/07/30 07:48:58;;;;;;;3.85;3.55;;;;;;;20.12;74.61;98229.81;5022380;28;20049;-81
2022/07/30 07:51:25;;;;;;;4.38;4.07;;;;;;;20.09;74.83;98236.47;5019502;28;20056;-79
2022/07/30 07:54:12;;;;;;;3.75;3.45;;;;;;;20.22;75.65;98229.88;5022218;28;20492;-80
2022/07/30 07:56:50;;;;;;;2.80;2.60;;;;;;;20.49;77.13;98235.88;5024176;28;20454;-80
2022/07/30 07:59:19;;;;;;;2.78;2.55;;;;;;;20.69;76.33;98239.66;5026108;28;20053;-80
2022/07/30 08:01:46;;;;;;;3.00;2.80;;;;;;;20.71;72.55;98242.91;5021154;28;20163;-81
2022/07/30 08:04:16;;;;;;;3.33;3.13;;;;;;;20.69;72.40;98234.34;5021570;28;20133;-81
2022/07/30 08:06:43;;;;;;;3.38;3.08;;;;;;;20.79;73.02;98242.38;5020424;28;20111;-80
2022/07/30 08:09:10;;;;;;;2.75;2.55;;;;;;;20.85;75.13;98239.47;5026331;28;20046;-79
2022/07/30 08:11:37;;;;;;;3.17;2.97;;;;;;;21.02;73.21;98249.91;5020548;28;20108;-80
2022/07/30 08:14:03;;;;;;;3.35;3.05;;;;;;;20.74;73.16;98237.03;5021789;28;20041;-80
2022/07/30 08:16:30;;;;;;;4.78;4.38;;;;;;;20.43;72.91;98242.22;5026004;28;20091;-80
2022/07/30 08:18:57;;;;;;;3.60;3.30;;;;;;;20.34;74.27;98248.31;5019944;28;20044;-80
2022/07/30 08:21:24;;;;;;;3.85;3.55;;;;;;;20.26;72.85;98236.25;5022190;28;20041;-82
2022/07/30 08:23:51;;;;;;;3.20;3.00;;;;;;;20.33;74.41;98244.81;5023789;28;20046;-80
2022/07/30 08:26:18;;;;;;;3.45;3.17;;;;;;;20.58;73.51;98250.31;5021809;28;20042;-81
2022/07/30 08:28:45;;;;;;;3.00;2.80;;;;;;;20.74;72.35;98251.16;5020936;28;20075;-81
2022/07/30 08:31:12;;;;;;;3.30;3.10;;;;;;;20.55;72.95;98253.47;5021347;28;20540;-81
2022/07/30 08:33:39;;;;;;;3.80;3.50;;;;;;;20.51;71.58;98256.91;5023014;28;20049;-81
2022/07/30 08:36:06;;;;;;;3.72;3.42;;;;;;;20.36;73.64;98254.97;5023732;28;20061;-79
2022/07/30 08:38:37;;;;;;;2.70;2.40;;;;;;;20.63;74.97;98256.69;5020587;28;20108;-81
2022/07/30 08:41:04;;;;;;;3.90;3.15;;;;;;;20.74;73.41;98261.00;5023975;28;20076;-79
2022/07/30 08:43:34;;;;;;;3.70;3.40;;;;;;;20.96;70.36;98266.97;5023410;28;21358;-79
2022/07/30 08:46:04;;;;;;;3.60;3.30;;;;;;;21.00;73.89;98273.38;5022175;28;20387;-80
2022/07/30 08:48:33;;;;;;;2.97;2.78;;;;;;;21.16;73.09;98257.41;5005387;28;20038;-80
2022/07/30 08:51:01;;;;;;;3.08;2.88;;;;;;;21.13;73.61;98264.06;5021695;28;20524;-79
2022/07/30 08:53:31;;;;;;;4.20;3.90;;;;;;;20.80;72.00;98274.09;5022385;28;20092;-79
2022/07/30 08:55:59;;;;;;;3.30;3.10;;;;;;;20.59;73.15;98277.75;5021028;28;20497;-80
2022/07/30 08:58:33;;;;;;;3.50;3.30;;;;;;;20.48;73.36;98276.91;5023201;28;20146;-80
2022/07/30 09:01:02;;;;;;;4.43;4.13;;;;;;;20.36;72.72;98289.59;5019343;28;20033;-80
2022/07/30 09:03:29;;;;;;;4.13;3.83;;;;;;;20.24;73.15;98292.47;5020175;28;20107;-80
2022/07/30 09:05:56;;;;;;;5.03;4.63;;;;;;;20.21;73.72;98295.66;5021775;28;20073;-80
2022/07/30 09:08:23;;;;;;;4.50;4.20;;;;;;;20.13;73.71;98297.97;5024472;28;20161;-81
2022/07/30 09:10:50;;;;;;;4.80;4.40;;;;;;;20.07;72.97;98297.13;5025785;28;20068;-81
2022/07/30 09:13:28;;;;;;;4.82;4.43;;;;;;;20.13;73.27;98300.63;5026260;28;20498;-81
2022/07/30 09:15:56;;;;;;;4.70;4.30;;;;;;;20.16;73.26;98302.81;5022020;28;20555;-81
2022/07/30 09:18:37;;;;;;;4.47;4.13;;;;;;;20.28;73.40;98298.88;5018914;28;20433;-81
2022/07/30 09:21:23;;;;;;;5.47;5.07;;;;;;;20.35;72.02;98303.97;5019854;28;20371;-82
2022/07/30 09:23:59;;;;;;;4.90;4.50;;;;;;;20.42;71.88;98299.22;5033038;28;20037;-81
2022/07/30 09:26:28;;;;;;;5.05;4.65;;;;;;;20.40;71.48;98298.69;5021494;28;20444;-81
2022/07/30 09:29:23;;;;;;;4.18;3.88;;;;;;;20.43;72.97;98306.16;5013632;28;20103;-80
2022/07/30 09:32:16;;;;;;;4.68;4.30;;;;;;;20.47;73.09;98304.59;5021651;28;20049;-80
2022/07/30 09:34:42;;;;;;;4.72;4.43;;;;;;;20.47;71.54;98296.63;5023522;28;20064;-81
2022/07/30 09:37:10;;;;;;;3.13;2.92;;;;;;;20.77;74.87;98301.28;5022039;28;20128;-80
2022/07/30 09:39:41;;;;;;;4.30;4.00;;;;;;;20.82;71.45;98297.84;5014577;28;20124;-81
2022/07/30 09:42:27;;;;;;;4.13;3.83;;;;;;;20.85;70.15;98302.63;5025290;28;20049;-82
2022/07/30 09:45:10;;;;;;;4.60;4.20;;;;;;;20.82;71.89;98298.66;5024216;28;20486;-81
2022/07/30 09:47:47;;;;;;;4.72;4.32;;;;;;;20.92;69.99;98294.41;5020707;28;20346;-81
2022/07/30 09:50:18;;;;;;;3.65;3.35;;;;;;;20.94;70.69;98289.63;5024648;28;20077;-81
2022/07/30 09:53:07;;;;;;;4.57;4.18;;;;;;;20.89;69.37;98297.59;5022720;28;20129;-82
2022/07/30 09:55:35;;;;;;;5.18;4.68;;;;;;;21.01;69.94;98290.97;5019908;28;20068;-82
2022/07/30 09:58:09;;;;;;;4.20;3.90;;;;;;;21.40;71.33;98293.22;5026922;28;20505;-82
2022/07/30 10:00:44;;;;;;;3.03;2.83;;;;;;;21.90;70.88;98280.97;5029047;28;20493;-81
2022/07/30 10:03:23;;;;;;;3.28;2.97;;;;;;;22.21;67.36;98286.31;5025405;28;20084;-81
2022/07/30 10:06:00;;;;;;;3.35;3.05;;;;;;;22.32;67.94;98282.53;5026063;28;20037;-82
2022/07/30 10:08:40;;;;;;;4.03;3.63;;;;;;;22.28;64.49;98282.28;5028474;28;20030;-80
2022/07/30 10:11:18;;;;;;;4.10;3.80;;;;;;;22.41;63.03;98283.56;5023548;28;20095;-81
2022/07/30 10:13:54;;;;;;;4.10;3.80;;;;;;;22.57;62.70;98282.47;5027508;28;20083;-81
2022/07/30 10:16:26;;;;;;;3.42;3.13;;;;;;;22.93;62.12;98282.34;5029573;28;20359;-82
2022/07/30 10:18:58;;;;;;;3.47;3.08;;;;;;;23.08;63.63;98279.56;5026162;28;20069;-81
2022/07/30 10:21:26;;;;;;;;;;;;;;;23.23;62.29;98289.41;5026332;28;20067;-81
2022/07/30 10:23:53;;;;;;;3.45;3.15;;;;;;;23.11;61.42;98287.06;5030536;28;19951;-83
2022/07/30 10:26:21;;;;;;;3.28;3.03;;;;;;;22.99;59.54;98278.56;5027779;28;20053;-81
2022/07/30 10:28:49;;;;;;;2.92;2.70;;;;;;;23.03;61.90;98282.28;5027010;28;20037;-88
2022/07/30 10:31:20;;;;;;;2.70;2.50;;;;;;;23.24;62.39;98273.06;5031616;28;20053;-85
2022/07/30 10:34:07;;;;;;;3.10;2.90;;;;;;;23.58;58.57;98277.66;5032021;28;20532;-84
2022/07/30 10:37:01;;;;;;;2.83;2.63;;;;;;;23.76;60.19;98268.97;5024681;28;20444;-86
2022/07/30 10:39:45;;;;;;;3.47;3.17;;;;;;;23.82;55.51;98271.59;5029609;28;20037;-86
2022/07/30 10:42:55;;;;;;;2.70;2.50;;;;;;;24.04;57.71;98271.91;5027392;28;20103;-85
2022/07/30 10:45:50;;;;;;;2.67;2.47;;;;;;;24.20;55.51;98259.19;5026260;28;20393;-85
2022/07/30 10:48:18;;;;;;;3.47;3.15;;;;;;;23.99;55.86;98255.88;5021270;28;20565;-84
2022/07/30 10:50:56;;;;;;;2.47;2.28;;;;;;;23.97;59.09;98263.41;5018900;28;20449;-84
2022/07/30 10:53:38;;;;;;;2.75;2.50;;;;;;;23.77;56.72;98259.84;5028078;28;20100;-84
2022/07/30 10:56:22;;;;;;;2.92;2.72;;;;;;;23.61;58.28;98265.56;5021287;28;20077;-86
2022/07/30 10:59:07;;;;;;;3.25;2.95;;;;;;;23.18;55.85;98276.03;5030205;28;20468;-84
2022/07/30 11:01:46;;;;;;;3.17;2.95;;;;;;;22.76;56.93;98268.47;5026928;28;20042;-83
2022/07/30 11:04:21;;;;;;;3.42;3.13;;;;;;;22.42;57.26;98266.47;5023563;28;20037;-84
2022/07/30 11:07:21;;;;;;;2.78;2.55;;;;;;;22.31;57.05;98270.22;5028678;28;20053;-82
2022/07/30 11:09:52;;;;;;;2.92;2.67;;;;;;;22.24;57.43;98264.38;5034004;28;20103;-87
2022/07/30 11:12:41;;;;;;;3.40;3.08;;;;;;;21.90;57.62;98280.97;5029547;28;20614;-84
2022/07/30 11:15:12;;;;;;;3.20;2.80;;;;;;;21.72;59.16;98271.63;5024996;28;20125;-84
2022/07/30 11:18:01;;;;;;;2.85;2.65;;;;;;;21.63;61.61;98276.69;5029815;28;20042;-86
2022/07/30 11:20:31;;;;;;;3.53;2.97;;;;;;;21.61;62.83;98273.50;5027188;28;20493;-83
2022/07/30 11:23:38;;;;;;;3.90;3.60;;;;;;;21.75;63.25;98270.28;5026977;28;20046;-84
2022/07/30 11:26:06;;;;;;;3.70;3.40;;;;;;;21.97;62.04;98270.00;5027660;28;20053;-85
2022/07/30 11:28:41;;;;;;;3.67;3.38;;;;;;;22.20;61.43;98258.00;5032594;28;20042;-85
2022/07/30 11:31:35;;;;;;;2.72;2.53;;;;;;;22.79;60.38;98258.06;5026776;28;20488;-84
2022/07/30 11:34:24;;;;;;;3.08;2.78;;;;;;;23.27;62.14;98261.03;5026163;28;20515;-86
2022/07/30 11:37:13;;;;;;;2.90;2.70;;;;;;;23.58;58.80;98255.44;5026388;28;20046;-84
2022/07/30 11:39:54;;;;;;;2.90;2.70;;;;;;;23.44;53.50;98256.06;5028168;28;20037;-85
2022/07/30 11:42:37;;;;;;;3.25;3.05;;;;;;;23.24;54.11;98251.66;5025319;28;20037;-83
2022/07/30 11:45:17;;;;;;;2.95;2.75;;;;;;;22.92;55.84;98254.81;5028570;28;20095;-84
2022/07/30 11:47:48;;;;;;;3.13;2.83;;;;;;;22.73;57.18;98258.31;5027288;28;20520;-84
2022/07/30 11:50:22;;;;;;;4.47;2.70;;;;;;;22.61;57.38;98254.13;5026124;28;20045;-84
2022/07/30 11:52:56;;;;;;;3.00;2.80;;;;;;;22.48;58.01;98260.03;5029457;28;20508;-84